createdAt,value
2019-01-17T00:00:05.647Z,93.00
2019-01-17T00:03:13.657Z,92.80
2019-01-17T00:06:21.630Z,92.60
2019-01-17T00:09:29.770Z,92.70
2019-01-17T00:12:40.994Z,92.60
2019-01-17T00:16:02.517Z,92.90
2019-01-17T00:19:16.581Z,92.60
2019-01-17T00:22:40.004Z,92.60
2019-01-17T00:25:48.361Z,92.40
2019-01-17T00:29:09.892Z,92.10
2019-01-17T00:32:18.267Z,91.70
2019-01-17T00:35:32.414Z,91.30
2019-01-17T00:38:40.160Z,91.20
2019-01-17T00:41:45.378Z,91.10
2019-01-17T00:44:53.634Z,90.70
2019-01-17T00:48:07.939Z,90.40
2019-01-17T00:51:15.851Z,90.10
2019-01-17T00:54:37.008Z,89.20
2019-01-17T00:57:45.027Z,89.40
2019-01-17T01:00:52.983Z,90.00
2019-01-17T01:04:00.652Z,89.60
2019-01-17T01:07:05.889Z,89.20
2019-01-17T01:10:21.870Z,89.00
2019-01-17T01:13:36.197Z,88.60
2019-01-17T01:17:02.232Z,87.60
2019-01-17T01:20:10.645Z,87.10
2019-01-17T01:23:18.694Z,86.40
2019-01-17T01:26:42.062Z,85.80
2019-01-17T01:29:47.294Z,85.50
2019-01-17T01:33:07.264Z,86.30
2019-01-17T01:36:24.499Z,85.90
2019-01-17T01:39:32.525Z,86.10
2019-01-17T01:42:43.595Z,85.30
2019-01-17T01:46:03.934Z,85.80
2019-01-17T01:49:21.244Z,85.60
2019-01-17T01:52:38.426Z,85.50
2019-01-17T01:55:42.060Z,84.80
2019-01-17T01:58:45.738Z,84.50
2019-01-17T02:01:49.439Z,84.20
2019-01-17T02:04:53.083Z,84.20
2019-01-17T02:07:56.745Z,84.60
2019-01-17T02:11:00.385Z,84.80
2019-01-17T02:14:04.066Z,85.70
2019-01-17T02:17:07.742Z,85.20
2019-01-17T02:20:11.612Z,84.60
2019-01-17T02:23:15.491Z,84.10
2019-01-17T02:26:19.129Z,84.90
2019-01-17T02:29:22.814Z,86.40
2019-01-17T02:32:26.531Z,86.30
2019-01-17T02:35:30.189Z,86.60
2019-01-17T02:38:33.898Z,86.60
2019-01-17T02:41:37.558Z,87.30
2019-01-17T02:44:41.209Z,86.60
2019-01-17T02:47:44.878Z,85.90
2019-01-17T02:50:48.550Z,85.70
2019-01-17T02:53:52.219Z,85.10
2019-01-17T02:56:55.885Z,85.00
2019-01-17T02:59:59.578Z,85.20
2019-01-17T03:03:03.211Z,87.10
2019-01-17T03:06:06.889Z,88.40
2019-01-17T03:09:10.535Z,87.40
2019-01-17T03:12:14.211Z,85.50
2019-01-17T03:15:17.908Z,84.70
2019-01-17T03:18:21.586Z,85.60
2019-01-17T03:21:25.233Z,87.50
2019-01-17T03:24:28.884Z,88.60
2019-01-17T03:27:32.565Z,88.90
2019-01-17T03:30:36.317Z,88.10
2019-01-17T03:33:40.022Z,85.50
2019-01-17T03:36:43.707Z,83.00
2019-01-17T03:39:47.340Z,82.70
2019-01-17T03:42:51.026Z,82.50
2019-01-17T03:45:54.696Z,81.90
2019-01-17T03:48:58.386Z,81.10
2019-01-17T03:52:02.016Z,79.20
2019-01-17T03:55:06.602Z,75.80
2019-01-17T03:58:10.311Z,74.70
2019-01-17T04:01:13.949Z,74.10
2019-01-17T04:04:17.622Z,72.70
2019-01-17T04:07:21.272Z,72.20
2019-01-17T04:10:24.970Z,72.30
2019-01-17T04:13:28.600Z,71.20
2019-01-17T04:16:32.281Z,70.60
2019-01-17T04:19:35.940Z,71.40
2019-01-17T04:22:39.618Z,71.00
2019-01-17T04:25:43.279Z,71.30
2019-01-17T04:28:46.928Z,70.40
2019-01-17T04:31:50.609Z,70.80
2019-01-17T04:34:54.245Z,71.00
2019-01-17T04:37:57.908Z,70.50
2019-01-17T04:41:01.555Z,70.90
2019-01-17T04:44:05.217Z,72.40
2019-01-17T04:47:08.854Z,73.80
2019-01-17T04:50:14.038Z,77.00
2019-01-17T04:53:17.720Z,77.50
2019-01-17T04:56:21.357Z,75.30
2019-01-17T04:59:25.026Z,75.80
2019-01-17T05:02:28.685Z,76.50
2019-01-17T05:05:32.313Z,77.40
2019-01-17T05:08:35.954Z,76.00
2019-01-17T05:11:39.634Z,78.00
2019-01-17T05:14:43.286Z,77.40
2019-01-17T05:17:46.954Z,77.20
2019-01-17T05:20:50.629Z,79.80
2019-01-17T05:23:54.264Z,76.80
2019-01-17T05:26:57.938Z,77.40
2019-01-17T05:30:01.605Z,75.40
2019-01-17T05:33:05.277Z,73.50
2019-01-17T05:36:08.920Z,70.10
2019-01-17T05:39:12.604Z,70.20
2019-01-17T05:42:16.255Z,73.00
2019-01-17T05:45:19.958Z,71.70
2019-01-17T05:48:23.635Z,70.10
2019-01-17T05:51:27.296Z,69.70
2019-01-17T05:54:31.017Z,69.80
2019-01-17T05:57:34.699Z,68.30
2019-01-17T06:00:38.363Z,68.40
2019-01-17T06:03:42.007Z,67.80
2019-01-17T06:06:45.679Z,68.20
2019-01-17T06:09:49.333Z,66.90
2019-01-17T06:12:54.104Z,66.90
2019-01-17T06:15:58.010Z,66.70
2019-01-17T06:19:01.651Z,65.60
2019-01-17T06:22:05.328Z,64.60
2019-01-17T06:25:08.958Z,63.60
2019-01-17T06:28:12.630Z,63.40
2019-01-17T06:31:16.323Z,63.10
2019-01-17T06:34:19.993Z,63.30
2019-01-17T06:37:23.694Z,62.70
2019-01-17T06:40:29.288Z,63.60
2019-01-17T06:43:32.947Z,62.50
2019-01-17T06:46:36.613Z,62.30
2019-01-17T06:49:40.288Z,63.30
2019-01-17T06:52:43.970Z,62.70
2019-01-17T06:55:47.634Z,62.90
2019-01-17T06:58:51.312Z,61.90
2019-01-17T07:01:54.990Z,62.50
2019-01-17T07:04:58.637Z,62.50
2019-01-17T07:08:03.318Z,63.10
2019-01-17T07:11:07.004Z,62.50
2019-01-17T07:14:10.656Z,63.00
2019-01-17T07:17:14.375Z,62.70
2019-01-17T07:20:18.019Z,63.70
2019-01-17T07:23:21.690Z,64.00
2019-01-17T07:26:25.353Z,64.20
2019-01-17T07:29:29.046Z,64.10
2019-01-17T07:32:32.916Z,62.80
2019-01-17T07:35:36.607Z,60.70
2019-01-17T07:38:40.296Z,61.30
2019-01-17T07:41:44.030Z,62.20
2019-01-17T07:44:47.699Z,60.10
2019-01-17T07:47:51.340Z,60.80
2019-01-17T07:50:55.019Z,60.30
2019-01-17T07:53:58.686Z,60.50
2019-01-17T07:57:02.374Z,60.00
2019-01-17T08:00:22.672Z,60.50
2019-01-17T08:03:26.324Z,59.90
2019-01-17T08:06:30.013Z,57.90
2019-01-17T08:09:33.716Z,56.10
2019-01-17T08:12:37.405Z,54.30
2019-01-17T08:15:41.042Z,52.70
2019-01-17T08:18:44.706Z,51.60
2019-01-17T08:21:48.417Z,50.10
2019-01-17T08:24:53.609Z,50.40
2019-01-17T08:27:57.287Z,50.10
2019-01-17T08:31:00.954Z,50.20
2019-01-17T08:34:04.632Z,49.00
2019-01-17T08:37:08.300Z,51.30
2019-01-17T08:40:20.385Z,50.10
2019-01-17T08:43:23.645Z,50.10
2019-01-17T08:46:27.355Z,50.90
2019-01-17T08:49:31.043Z,50.50
2019-01-17T08:52:34.675Z,50.80
2019-01-17T08:55:38.363Z,50.70
2019-01-17T08:58:42.031Z,50.30
2019-01-17T09:01:45.697Z,50.40
2019-01-17T09:04:49.371Z,50.40
2019-01-17T09:07:53.060Z,51.50
2019-01-17T09:10:56.723Z,51.30
2019-01-17T09:14:00.366Z,50.40
2019-01-17T09:17:04.031Z,48.60
2019-01-17T09:20:10.883Z,48.00
2019-01-17T09:23:14.528Z,48.30
2019-01-17T09:26:18.181Z,47.90
2019-01-17T09:29:21.820Z,49.70
2019-01-17T09:32:25.497Z,50.70
2019-01-17T09:35:29.171Z,51.50
2019-01-17T09:38:32.843Z,52.20
2019-01-17T09:41:36.482Z,52.40
2019-01-17T09:44:40.165Z,52.00
2019-01-17T09:47:43.874Z,52.80
2019-01-17T09:50:47.506Z,52.20
2019-01-17T09:53:51.163Z,53.80
2019-01-17T09:56:54.808Z,53.60
2019-01-17T09:59:58.495Z,52.40
2019-01-17T10:03:02.169Z,51.50
2019-01-17T10:06:05.830Z,48.70
2019-01-17T10:09:09.513Z,48.30
2019-01-17T10:12:13.166Z,45.10
2019-01-17T10:15:28.768Z,43.90
2019-01-17T10:18:52.019Z,42.30
2019-01-17T10:22:20.072Z,41.40
2019-01-17T10:25:35.544Z,40.80
2019-01-17T10:28:57.386Z,41.40
2019-01-17T10:32:23.496Z,41.00
2019-01-17T10:35:32.932Z,41.50
2019-01-17T10:39:04.519Z,42.20
2019-01-17T10:42:16.830Z,43.10
2019-01-17T10:45:39.477Z,42.70
2019-01-17T10:48:46.340Z,41.50
2019-01-17T10:52:23.565Z,43.90
2019-01-17T10:55:35.880Z,45.10
2019-01-17T10:58:48.475Z,47.50
2019-01-17T11:02:15.121Z,51.30
2019-01-17T11:05:40.269Z,49.60
2019-01-17T11:09:11.018Z,50.60
2019-01-17T11:12:42.155Z,51.60
2019-01-17T11:16:05.356Z,52.70
2019-01-17T11:19:17.803Z,55.00
2019-01-17T11:22:27.194Z,54.90
2019-01-17T11:25:36.576Z,55.20
2019-01-17T11:28:46.343Z,55.80
2019-01-17T11:31:53.115Z,55.90
2019-01-17T11:35:08.159Z,56.00
2019-01-17T11:38:14.925Z,56.50
2019-01-17T11:41:45.132Z,56.40
2019-01-17T11:44:54.704Z,57.10
2019-01-17T11:48:04.153Z,57.60
2019-01-17T11:51:13.912Z,57.10
2019-01-17T11:54:23.549Z,58.20
2019-01-17T11:57:39.360Z,58.30
2019-01-17T12:01:13.155Z,57.50
2019-01-17T12:04:33.676Z,58.50
2019-01-17T12:07:37.345Z,58.30
2019-01-17T12:10:40.989Z,58.40
2019-01-17T12:13:44.689Z,58.90
2019-01-17T12:16:48.354Z,58.00
2019-01-17T12:19:52.048Z,57.50
2019-01-17T12:22:55.689Z,56.50
2019-01-17T12:25:59.356Z,55.90
2019-01-17T12:29:03.044Z,55.70
2019-01-17T12:32:06.671Z,56.50
2019-01-17T12:35:10.791Z,55.90
2019-01-17T12:38:14.447Z,56.00
2019-01-17T12:41:18.136Z,55.60
2019-01-17T12:44:21.796Z,55.80
2019-01-17T12:47:25.523Z,56.20
2019-01-17T12:50:29.196Z,56.50
2019-01-17T12:53:32.926Z,56.30
2019-01-17T12:56:36.699Z,57.70
2019-01-17T12:59:40.606Z,58.00
2019-01-17T13:02:44.681Z,59.60
2019-01-17T13:05:48.280Z,59.20
2019-01-17T13:08:51.991Z,59.60
2019-01-17T13:11:55.650Z,61.00
2019-01-17T13:14:59.341Z,60.70
2019-01-17T13:18:03.031Z,60.00
2019-01-17T13:21:06.701Z,60.30
2019-01-17T13:24:10.415Z,61.10
2019-01-17T13:27:14.185Z,61.60
2019-01-17T13:30:20.824Z,61.70
2019-01-17T13:33:24.585Z,62.30
2019-01-17T13:36:28.258Z,63.00
2019-01-17T13:39:31.933Z,62.60
2019-01-17T13:42:35.592Z,62.30
2019-01-17T13:45:39.285Z,61.90
2019-01-17T13:48:42.940Z,62.30
2019-01-17T13:51:47.236Z,62.20
2019-01-17T13:54:50.948Z,61.80
2019-01-17T13:57:54.612Z,62.40
2019-01-17T14:00:58.256Z,63.50
2019-01-17T14:04:01.925Z,63.10
2019-01-17T14:07:05.560Z,63.80
2019-01-17T14:10:14.806Z,63.80
2019-01-17T14:13:18.567Z,64.70
2019-01-17T14:16:22.200Z,65.10
2019-01-17T14:19:25.911Z,65.80
2019-01-17T14:22:29.584Z,65.50
2019-01-17T14:25:33.259Z,65.80
2019-01-17T14:28:36.917Z,65.90
2019-01-17T14:31:40.605Z,65.60
2019-01-17T14:34:44.238Z,66.00
2019-01-17T14:37:47.939Z,66.00
2019-01-17T14:40:51.642Z,67.10
2019-01-17T14:43:55.318Z,66.70
2019-01-17T14:46:58.981Z,66.90
2019-01-17T14:50:02.834Z,66.90
2019-01-17T14:53:06.495Z,66.60
2019-01-17T14:56:10.156Z,66.60
2019-01-17T14:59:13.836Z,67.20
2019-01-17T15:02:17.486Z,67.10
2019-01-17T15:05:21.187Z,67.50
2019-01-17T15:08:24.871Z,67.20
2019-01-17T15:11:28.502Z,67.50
2019-01-17T15:14:32.163Z,67.30
2019-01-17T15:17:36.010Z,67.80
2019-01-17T15:20:39.689Z,68.10
2019-01-17T15:23:43.339Z,69.50
2019-01-17T15:26:47.059Z,68.50
2019-01-17T15:29:50.732Z,68.40
2019-01-17T15:32:54.383Z,68.40
2019-01-17T15:35:58.063Z,68.60
2019-01-17T15:39:01.739Z,68.40
2019-01-17T15:42:05.425Z,68.40
2019-01-17T15:45:09.264Z,69.60
2019-01-17T15:48:12.930Z,69.20
2019-01-17T15:51:16.571Z,69.20
2019-01-17T15:54:20.260Z,69.30
2019-01-17T15:57:23.895Z,69.90
2019-01-17T16:00:29.807Z,69.40
2019-01-17T16:03:33.518Z,68.80
2019-01-17T16:06:37.161Z,68.80
2019-01-17T16:09:40.868Z,68.60
2019-01-17T16:12:44.545Z,68.60
2019-01-17T16:15:48.242Z,68.80
2019-01-17T16:18:51.936Z,68.50
2019-01-17T16:21:55.597Z,68.40
2019-01-17T16:24:59.252Z,68.80
2019-01-17T16:28:02.956Z,69.00
2019-01-17T16:31:06.699Z,68.40
2019-01-17T16:34:10.399Z,68.10
2019-01-17T16:37:15.632Z,68.80
2019-01-17T16:40:19.279Z,68.60
2019-01-17T16:43:22.978Z,68.20
2019-01-17T16:46:26.649Z,68.60
2019-01-17T16:49:30.342Z,68.80
2019-01-17T16:52:34.043Z,68.80
2019-01-17T16:55:37.738Z,68.40
2019-01-17T16:58:41.453Z,68.90
2019-01-17T17:01:45.141Z,69.00
2019-01-17T17:04:48.809Z,69.30
2019-01-17T17:07:52.477Z,68.90
2019-01-17T17:11:15.492Z,69.20
2019-01-17T17:14:19.154Z,69.10
2019-01-17T17:17:22.842Z,69.50
2019-01-17T17:20:26.501Z,69.60
2019-01-17T17:23:30.223Z,69.50
2019-01-17T17:26:33.875Z,70.30
2019-01-17T17:29:37.566Z,70.90
2019-01-17T17:32:41.227Z,70.90
2019-01-17T17:35:44.946Z,70.90
2019-01-17T17:38:48.580Z,71.20
2019-01-17T17:41:52.301Z,71.00
2019-01-17T17:44:56.032Z,70.40
2019-01-17T17:47:59.754Z,70.40
2019-01-17T17:51:03.813Z,70.00
2019-01-17T17:54:07.514Z,69.80
2019-01-17T17:57:11.169Z,69.00
2019-01-17T18:00:25.105Z,68.80
2019-01-17T18:03:28.775Z,68.90
2019-01-17T18:06:32.510Z,69.00
2019-01-17T18:09:36.160Z,68.90
2019-01-17T18:12:39.901Z,69.20
2019-01-17T18:15:44.249Z,69.50
2019-01-17T18:18:47.956Z,69.40
2019-01-17T18:21:51.624Z,69.10
2019-01-17T18:24:55.346Z,69.20
2019-01-17T18:27:59.019Z,69.50
2019-01-17T18:31:02.736Z,70.10
2019-01-17T18:34:07.956Z,70.20
2019-01-17T18:37:11.654Z,70.40
2019-01-17T18:40:17.236Z,70.80
2019-01-17T18:43:20.967Z,71.00
2019-01-17T18:46:24.647Z,71.70
2019-01-17T18:49:28.929Z,72.20
2019-01-17T18:52:32.563Z,72.40
2019-01-17T18:55:36.291Z,72.90
2019-01-17T18:58:39.957Z,73.30
2019-01-17T19:01:43.652Z,72.40
2019-01-17T19:04:47.317Z,71.90
2019-01-17T19:07:51.052Z,72.10
2019-01-17T19:10:54.759Z,70.90
2019-01-17T19:13:58.519Z,70.20
2019-01-17T19:17:03.098Z,69.60
2019-01-17T19:20:09.978Z,69.60
2019-01-17T19:23:13.698Z,69.30
2019-01-17T19:26:21.257Z,69.20
2019-01-17T19:29:27.035Z,68.70
2019-01-17T19:32:30.473Z,68.10
2019-01-17T19:35:34.195Z,68.50
2019-01-17T19:38:37.946Z,67.80
2019-01-17T19:41:41.667Z,67.40
2019-01-17T19:44:45.439Z,67.40
2019-01-17T19:47:49.137Z,67.10
2019-01-17T19:50:53.469Z,67.40
2019-01-17T19:53:57.203Z,66.80
2019-01-17T19:57:00.946Z,66.80
2019-01-17T20:00:07.821Z,66.90
2019-01-17T20:03:11.575Z,66.50
2019-01-17T20:06:15.352Z,67.00
2019-01-17T20:09:19.679Z,66.60
2019-01-17T20:12:23.388Z,66.40
2019-01-17T20:15:27.207Z,65.70
2019-01-17T20:18:31.052Z,65.20
2019-01-17T20:21:34.810Z,65.40
2019-01-17T20:24:39.617Z,65.60
2019-01-17T20:27:43.438Z,66.00
2019-01-17T20:30:47.186Z,66.10
2019-01-17T20:33:51.005Z,65.60
2019-01-17T20:36:54.789Z,65.50
2019-01-17T20:39:58.580Z,65.70
2019-01-17T20:43:02.302Z,65.90
2019-01-17T20:46:06.175Z,65.80
2019-01-17T20:49:09.892Z,65.50
2019-01-17T20:52:13.646Z,65.80
2019-01-17T20:55:17.414Z,66.70
2019-01-17T20:58:21.165Z,65.80
2019-01-17T21:01:28.021Z,66.00
2019-01-17T21:04:31.846Z,66.10
2019-01-17T21:07:36.817Z,65.80
2019-01-17T21:13:45.152Z,66.70
2019-01-17T21:16:48.850Z,66.40
2019-01-17T21:19:52.529Z,66.20
2019-01-17T21:22:56.197Z,67.00
2019-01-17T21:25:59.890Z,66.70
2019-01-17T21:29:03.568Z,67.30
2019-01-17T21:32:07.271Z,67.10
2019-01-17T21:35:11.958Z,67.70
2019-01-17T21:38:15.670Z,67.80
2019-01-17T21:41:19.323Z,67.10
2019-01-17T21:44:23.047Z,67.40
2019-01-17T21:47:26.680Z,67.50
2019-01-17T21:50:32.098Z,68.40
2019-01-17T21:53:35.751Z,68.40
2019-01-17T21:56:39.446Z,67.70
2019-01-17T21:59:43.099Z,67.90
2019-01-17T22:02:46.807Z,68.20
2019-01-17T22:05:50.450Z,69.30
2019-01-17T22:08:54.161Z,68.60
2019-01-17T22:11:57.836Z,68.80
2019-01-17T22:15:01.509Z,68.60
2019-01-17T22:18:05.181Z,69.00
2019-01-17T22:21:08.888Z,69.60
2019-01-17T22:24:12.567Z,69.70
2019-01-17T22:27:16.611Z,69.30
2019-01-17T22:30:26.210Z,69.70
2019-01-17T22:33:29.948Z,69.90
2019-01-17T22:36:33.579Z,69.80
2019-01-17T22:39:37.289Z,70.50
2019-01-17T22:42:40.950Z,70.60
2019-01-17T22:45:44.661Z,70.80
2019-01-17T22:48:48.299Z,70.80
2019-01-17T22:51:52.020Z,71.30
2019-01-17T22:54:55.687Z,71.70
2019-01-17T22:57:59.381Z,72.10
2019-01-17T23:01:06.257Z,72.30
2019-01-17T23:04:09.984Z,72.80
2019-01-17T23:07:13.658Z,73.10
2019-01-17T23:10:17.358Z,73.40
2019-01-17T23:13:21.012Z,73.80
2019-01-17T23:16:24.740Z,73.80
2019-01-17T23:19:28.380Z,73.60
2019-01-17T23:22:32.104Z,74.00
2019-01-17T23:25:35.813Z,73.80
2019-01-17T23:28:39.981Z,73.90
2019-01-17T23:31:43.648Z,74.00
2019-01-17T23:34:47.374Z,72.60
2019-01-17T23:37:51.111Z,73.20
2019-01-17T23:40:54.808Z,73.20
2019-01-17T23:43:58.520Z,72.80
2019-01-17T23:47:02.222Z,72.70
2019-01-17T23:50:10.851Z,72.10
2019-01-17T23:53:14.520Z,72.00
2019-01-17T23:56:18.162Z,71.80
2019-01-17T23:59:22.797Z,71.30
